sensor_id;sensor_type;location;lat;lon;timestamp;P1;durP1;ratioP1;P2;durP2;ratioP2
43311;SDS011;30041;48.300;16.352;2023-05-23T00:00:58;6.50;;;5.50;;
43311;SDS011;30041;48.300;16.352;2023-05-23T00:03:24;6.35;;;5.20;;
43311;SDS011;30041;48.300;16.352;2023-05-23T00:05:51;5.78;;;5.18;;
43311;SDS011;30041;48.300;16.352;2023-05-23T00:08:17;7.15;;;4.72;;
43311;SDS011;30041;48.300;16.352;2023-05-23T00:10:43;6.07;;;5.47;;
43311;SDS011;30041;48.300;16.352;2023-05-23T00:13:10;7.32;;;5.43;;
43311;SDS011;30041;48.300;16.352;2023-05-23T00:15:36;6.45;;;5.65;;
43311;SDS011;30041;48.300;16.352;2023-05-23T00:18:01;6.07;;;5.47;;
43311;SDS011;30041;48.300;16.352;2023-05-23T00:20:27;5.72;;;5.10;;
43311;SDS011;30041;48.300;16.352;2023-05-23T00:22:53;5.82;;;5.25;;
43311;SDS011;30041;48.300;16.352;2023-05-23T00:25:19;6.32;;;5.47;;
43311;SDS011;30041;48.300;16.352;2023-05-23T00:27:44;6.10;;;5.13;;
43311;SDS011;30041;48.300;16.352;2023-05-23T00:30:10;6.30;;;4.88;;
43311;SDS011;30041;48.300;16.352;2023-05-23T00:32:36;6.43;;;5.13;;
43311;SDS011;30041;48.300;16.352;2023-05-23T00:35:01;5.90;;;5.15;;
43311;SDS011;30041;48.300;16.352;2023-05-23T00:37:27;6.00;;;5.47;;
43311;SDS011;30041;48.300;16.352;2023-05-23T00:39:52;5.95;;;5.35;;
43311;SDS011;30041;48.300;16.352;2023-05-23T00:42:18;6.00;;;5.38;;
43311;SDS011;30041;48.300;16.352;2023-05-23T00:44:43;5.32;;;4.82;;
43311;SDS011;30041;48.300;16.352;2023-05-23T00:47:09;5.70;;;4.97;;
43311;SDS011;30041;48.300;16.352;2023-05-23T00:49:35;6.30;;;5.30;;
43311;SDS011;30041;48.300;16.352;2023-05-23T00:52:01;6.22;;;5.32;;
43311;SDS011;30041;48.300;16.352;2023-05-23T00:54:27;5.65;;;4.75;;
43311;SDS011;30041;48.300;16.352;2023-05-23T00:56:54;5.25;;;4.75;;
43311;SDS011;30041;48.300;16.352;2023-05-23T00:59:20;7.80;;;5.13;;
43311;SDS011;30041;48.300;16.352;2023-05-23T01:01:48;5.18;;;4.68;;
43311;SDS011;30041;48.300;16.352;2023-05-23T01:04:15;5.30;;;4.80;;
43311;SDS011;30041;48.300;16.352;2023-05-23T01:06:41;5.30;;;4.80;;
43311;SDS011;30041;48.300;16.352;2023-05-23T01:09:07;5.43;;;4.93;;
43311;SDS011;30041;48.300;16.352;2023-05-23T01:11:39;4.90;;;4.40;;
43311;SDS011;30041;48.300;16.352;2023-05-23T01:14:16;5.60;;;4.68;;
43311;SDS011;30041;48.300;16.352;2023-05-23T01:17:32;5.60;;;5.10;;
43311;SDS011;30041;48.300;16.352;2023-05-23T01:19:54;5.35;;;4.85;;
43311;SDS011;30041;48.300;16.352;2023-05-23T01:22:40;5.13;;;4.63;;
43311;SDS011;30041;48.300;16.352;2023-05-23T01:25:31;5.50;;;4.93;;
43311;SDS011;30041;48.300;16.352;2023-05-23T01:28:22;4.95;;;4.45;;
43311;SDS011;30041;48.300;16.352;2023-05-23T01:30:56;5.22;;;4.72;;
43311;SDS011;30041;48.300;16.352;2023-05-23T01:33:24;4.75;;;4.25;;
43311;SDS011;30041;48.300;16.352;2023-05-23T01:35:52;5.30;;;4.80;;
43311;SDS011;30041;48.300;16.352;2023-05-23T01:38:20;5.63;;;4.80;;
43311;SDS011;30041;48.300;16.352;2023-05-23T01:40:45;5.13;;;4.47;;
43311;SDS011;30041;48.300;16.352;2023-05-23T01:43:11;5.00;;;4.50;;
43311;SDS011;30041;48.300;16.352;2023-05-23T01:45:36;5.70;;;4.63;;
43311;SDS011;30041;48.300;16.352;2023-05-23T01:48:02;5.28;;;4.45;;
43311;SDS011;30041;48.300;16.352;2023-05-23T01:50:28;5.70;;;5.10;;
43311;SDS011;30041;48.300;16.352;2023-05-23T01:52:56;5.47;;;4.40;;
43311;SDS011;30041;48.300;16.352;2023-05-23T01:55:25;4.93;;;4.43;;
43311;SDS011;30041;48.300;16.352;2023-05-23T01:57:54;4.78;;;4.30;;
43311;SDS011;30041;48.300;16.352;2023-05-23T02:00:21;4.60;;;4.20;;
43311;SDS011;30041;48.300;16.352;2023-05-23T02:02:47;4.97;;;4.47;;
43311;SDS011;30041;48.300;16.352;2023-05-23T02:05:13;5.03;;;4.47;;
43311;SDS011;30041;48.300;16.352;2023-05-23T02:07:38;4.65;;;4.13;;
43311;SDS011;30041;48.300;16.352;2023-05-23T02:10:07;5.70;;;4.78;;
43311;SDS011;30041;48.300;16.352;2023-05-23T02:12:33;4.85;;;4.18;;
43311;SDS011;30041;48.300;16.352;2023-05-23T02:14:59;5.72;;;4.40;;
43311;SDS011;30041;48.300;16.352;2023-05-23T02:17:24;4.82;;;4.32;;
43311;SDS011;30041;48.300;16.352;2023-05-23T02:19:50;4.93;;;4.43;;
43311;SDS011;30041;48.300;16.352;2023-05-23T02:22:15;5.00;;;4.50;;
43311;SDS011;30041;48.300;16.352;2023-05-23T02:24:41;4.85;;;4.35;;
43311;SDS011;30041;48.300;16.352;2023-05-23T02:27:06;4.65;;;4.20;;
43311;SDS011;30041;48.300;16.352;2023-05-23T02:29:32;4.20;;;3.80;;
43311;SDS011;30041;48.300;16.352;2023-05-23T02:31:58;4.55;;;4.15;;
43311;SDS011;30041;48.300;16.352;2023-05-23T02:34:23;4.75;;;4.00;;
43311;SDS011;30041;48.300;16.352;2023-05-23T02:36:49;4.63;;;4.22;;
43311;SDS011;30041;48.300;16.352;2023-05-23T02:39:14;4.97;;;4.45;;
43311;SDS011;30041;48.300;16.352;2023-05-23T02:41:40;5.10;;;3.95;;
43311;SDS011;30041;48.300;16.352;2023-05-23T02:44:05;4.90;;;4.43;;
43311;SDS011;30041;48.300;16.352;2023-05-23T02:46:31;5.35;;;4.30;;
43311;SDS011;30041;48.300;16.352;2023-05-23T02:48:56;5.00;;;4.03;;
43311;SDS011;30041;48.300;16.352;2023-05-23T02:51:22;4.75;;;4.28;;
43311;SDS011;30041;48.300;16.352;2023-05-23T02:53:47;5.53;;;4.38;;
43311;SDS011;30041;48.300;16.352;2023-05-23T02:56:13;4.18;;;3.78;;
43311;SDS011;30041;48.300;16.352;2023-05-23T02:58:38;4.18;;;3.60;;
43311;SDS011;30041;48.300;16.352;2023-05-23T03:01:04;4.25;;;3.85;;
43311;SDS011;30041;48.300;16.352;2023-05-23T03:03:30;4.15;;;3.67;;
43311;SDS011;30041;48.300;16.352;2023-05-23T03:05:59;4.00;;;3.60;;
43311;SDS011;30041;48.300;16.352;2023-05-23T03:08:25;4.20;;;3.80;;
43311;SDS011;30041;48.300;16.352;2023-05-23T03:10:51;4.38;;;3.45;;
43311;SDS011;30041;48.300;16.352;2023-05-23T03:13:20;4.30;;;3.90;;
43311;SDS011;30041;48.300;16.352;2023-05-23T03:15:46;4.07;;;3.65;;
43311;SDS011;30041;48.300;16.352;2023-05-23T03:18:11;4.43;;;4.03;;
43311;SDS011;30041;48.300;16.352;2023-05-23T03:20:37;4.32;;;3.80;;
43311;SDS011;30041;48.300;16.352;2023-05-23T03:23:03;3.72;;;3.33;;
43311;SDS011;30041;48.300;16.352;2023-05-23T03:25:28;4.78;;;3.67;;
43311;SDS011;30041;48.300;16.352;2023-05-23T03:27:54;4.15;;;3.72;;
43311;SDS011;30041;48.300;16.352;2023-05-23T03:30:19;4.13;;;3.42;;
43311;SDS011;30041;48.300;16.352;2023-05-23T03:32:45;4.72;;;3.67;;
43311;SDS011;30041;48.300;16.352;2023-05-23T03:35:11;6.22;;;4.22;;
43311;SDS011;30041;48.300;16.352;2023-05-23T03:37:36;5.60;;;3.75;;
43311;SDS011;30041;48.300;16.352;2023-05-23T03:40:02;5.47;;;3.85;;
43311;SDS011;30041;48.300;16.352;2023-05-23T03:42:28;4.30;;;3.58;;
43311;SDS011;30041;48.300;16.352;2023-05-23T03:44:54;4.55;;;3.80;;
43311;SDS011;30041;48.300;16.352;2023-05-23T03:47:19;5.30;;;3.65;;
43311;SDS011;30041;48.300;16.352;2023-05-23T03:49:45;4.53;;;3.83;;
43311;SDS011;30041;48.300;16.352;2023-05-23T03:52:10;5.65;;;3.85;;
43311;SDS011;30041;48.300;16.352;2023-05-23T03:54:36;8.18;;;3.90;;
43311;SDS011;30041;48.300;16.352;2023-05-23T03:57:01;6.72;;;4.40;;
43311;SDS011;30041;48.300;16.352;2023-05-23T03:59:27;4.30;;;3.90;;
43311;SDS011;30041;48.300;16.352;2023-05-23T04:01:53;5.45;;;4.28;;
43311;SDS011;30041;48.300;16.352;2023-05-23T04:04:19;7.45;;;3.95;;
43311;SDS011;30041;48.300;16.352;2023-05-23T04:06:45;12.40;;;3.88;;
43311;SDS011;30041;48.300;16.352;2023-05-23T04:09:11;8.35;;;4.30;;
43311;SDS011;30041;48.300;16.352;2023-05-23T04:11:37;9.35;;;4.30;;
43311;SDS011;30041;48.300;16.352;2023-05-23T04:14:02;7.63;;;5.13;;
43311;SDS011;30041;48.300;16.352;2023-05-23T04:16:28;8.38;;;5.30;;
43311;SDS011;30041;48.300;16.352;2023-05-23T04:18:53;6.72;;;5.50;;
43311;SDS011;30041;48.300;16.352;2023-05-23T04:21:19;6.95;;;4.88;;
43311;SDS011;30041;48.300;16.352;2023-05-23T04:23:44;9.23;;;4.97;;
43311;SDS011;30041;48.300;16.352;2023-05-23T04:26:10;5.53;;;4.82;;
43311;SDS011;30041;48.300;16.352;2023-05-23T04:28:35;6.80;;;4.90;;
43311;SDS011;30041;48.300;16.352;2023-05-23T04:31:01;10.88;;;5.00;;
43311;SDS011;30041;48.300;16.352;2023-05-23T04:33:28;14.88;;;5.88;;
43311;SDS011;30041;48.300;16.352;2023-05-23T04:35:54;13.30;;;5.40;;
43311;SDS011;30041;48.300;16.352;2023-05-23T04:38:19;13.10;;;5.72;;
43311;SDS011;30041;48.300;16.352;2023-05-23T04:40:44;8.85;;;5.38;;
43311;SDS011;30041;48.300;16.352;2023-05-23T04:43:10;6.90;;;4.90;;
43311;SDS011;30041;48.300;16.352;2023-05-23T04:45:36;9.93;;;5.18;;
43311;SDS011;30041;48.300;16.352;2023-05-23T04:48:02;10.80;;;5.38;;
43311;SDS011;30041;48.300;16.352;2023-05-23T04:50:27;8.52;;;5.85;;
43311;SDS011;30041;48.300;16.352;2023-05-23T04:52:53;11.68;;;5.45;;
43311;SDS011;30041;48.300;16.352;2023-05-23T04:55:18;17.13;;;6.25;;
43311;SDS011;30041;48.300;16.352;2023-05-23T04:57:44;7.78;;;5.63;;
43311;SDS011;30041;48.300;16.352;2023-05-23T05:00:10;7.13;;;5.15;;
43311;SDS011;30041;48.300;16.352;2023-05-23T05:02:36;8.80;;;5.43;;
43311;SDS011;30041;48.300;16.352;2023-05-23T05:05:02;11.60;;;6.20;;
43311;SDS011;30041;48.300;16.352;2023-05-23T05:07:27;8.60;;;5.88;;
43311;SDS011;30041;48.300;16.352;2023-05-23T05:09:53;9.13;;;5.80;;
43311;SDS011;30041;48.300;16.352;2023-05-23T05:12:18;7.18;;;5.75;;
43311;SDS011;30041;48.300;16.352;2023-05-23T05:14:44;9.90;;;6.03;;
43311;SDS011;30041;48.300;16.352;2023-05-23T05:17:09;7.47;;;6.35;;
43311;SDS011;30041;48.300;16.352;2023-05-23T05:19:35;26.33;;;7.55;;
43311;SDS011;30041;48.300;16.352;2023-05-23T05:22:00;20.63;;;7.55;;
43311;SDS011;30041;48.300;16.352;2023-05-23T05:24:26;35.28;;;11.15;;
43311;SDS011;30041;48.300;16.352;2023-05-23T05:26:51;33.75;;;10.07;;
43311;SDS011;30041;48.300;16.352;2023-05-23T05:29:17;23.50;;;8.98;;
43311;SDS011;30041;48.300;16.352;2023-05-23T05:31:43;16.88;;;8.35;;
43311;SDS011;30041;48.300;16.352;2023-05-23T05:34:09;14.13;;;7.97;;
43311;SDS011;30041;48.300;16.352;2023-05-23T05:36:36;12.88;;;6.95;;
43311;SDS011;30041;48.300;16.352;2023-05-23T05:39:01;16.17;;;7.55;;
43311;SDS011;30041;48.300;16.352;2023-05-23T05:41:27;12.95;;;7.57;;
43311;SDS011;30041;48.300;16.352;2023-05-23T05:43:52;15.90;;;7.70;;
43311;SDS011;30041;48.300;16.352;2023-05-23T05:46:18;12.57;;;6.90;;
43311;SDS011;30041;48.300;16.352;2023-05-23T05:48:44;11.77;;;6.95;;
43311;SDS011;30041;48.300;16.352;2023-05-23T05:51:10;8.98;;;6.28;;
43311;SDS011;30041;48.300;16.352;2023-05-23T05:53:35;12.55;;;7.15;;
43311;SDS011;30041;48.300;16.352;2023-05-23T05:56:01;12.50;;;7.68;;
43311;SDS011;30041;48.300;16.352;2023-05-23T05:58:27;10.85;;;8.05;;
43311;SDS011;30041;48.300;16.352;2023-05-23T06:00:53;11.10;;;8.07;;
43311;SDS011;30041;48.300;16.352;2023-05-23T06:03:19;10.25;;;7.22;;
43311;SDS011;30041;48.300;16.352;2023-05-23T06:05:44;11.77;;;8.07;;
43311;SDS011;30041;48.300;16.352;2023-05-23T06:08:10;11.52;;;7.68;;
43311;SDS011;30041;48.300;16.352;2023-05-23T06:10:36;9.43;;;7.70;;
43311;SDS011;30041;48.300;16.352;2023-05-23T06:13:02;11.85;;;8.25;;
43311;SDS011;30041;48.300;16.352;2023-05-23T06:15:28;10.25;;;7.32;;
43311;SDS011;30041;48.300;16.352;2023-05-23T06:17:53;10.75;;;7.40;;
43311;SDS011;30041;48.300;16.352;2023-05-23T06:20:19;13.15;;;8.00;;
43311;SDS011;30041;48.300;16.352;2023-05-23T06:22:44;12.32;;;8.05;;
43311;SDS011;30041;48.300;16.352;2023-05-23T06:25:10;15.93;;;8.98;;
43311;SDS011;30041;48.300;16.352;2023-05-23T06:27:35;20.73;;;8.38;;
43311;SDS011;30041;48.300;16.352;2023-05-23T06:30:01;9.18;;;5.72;;
43311;SDS011;30041;48.300;16.352;2023-05-23T06:32:30;11.13;;;5.20;;
43311;SDS011;30041;48.300;16.352;2023-05-23T06:34:55;8.57;;;4.57;;
43311;SDS011;30041;48.300;16.352;2023-05-23T06:37:21;7.45;;;4.40;;
43311;SDS011;30041;48.300;16.352;2023-05-23T06:39:46;12.98;;;6.13;;
43311;SDS011;30041;48.300;16.352;2023-05-23T06:42:12;7.53;;;4.38;;
43311;SDS011;30041;48.300;16.352;2023-05-23T06:44:38;6.97;;;3.90;;
43311;SDS011;30041;48.300;16.352;2023-05-23T06:47:04;11.07;;;3.80;;
43311;SDS011;30041;48.300;16.352;2023-05-23T06:49:30;7.15;;;3.95;;
43311;SDS011;30041;48.300;16.352;2023-05-23T06:51:55;9.70;;;3.72;;
43311;SDS011;30041;48.300;16.352;2023-05-23T06:54:21;5.32;;;3.35;;
43311;SDS011;30041;48.300;16.352;2023-05-23T06:56:49;6.47;;;2.95;;
43311;SDS011;30041;48.300;16.352;2023-05-23T06:59:14;5.60;;;3.33;;
43311;SDS011;30041;48.300;16.352;2023-05-23T07:01:40;5.53;;;2.90;;
43311;SDS011;30041;48.300;16.352;2023-05-23T07:04:05;3.80;;;2.63;;
43311;SDS011;30041;48.300;16.352;2023-05-23T07:06:31;5.65;;;2.58;;
43311;SDS011;30041;48.300;16.352;2023-05-23T07:08:57;5.28;;;2.30;;
43311;SDS011;30041;48.300;16.352;2023-05-23T07:11:22;5.30;;;2.70;;
43311;SDS011;30041;48.300;16.352;2023-05-23T07:13:48;4.88;;;2.38;;
43311;SDS011;30041;48.300;16.352;2023-05-23T07:16:13;3.33;;;2.28;;
43311;SDS011;30041;48.300;16.352;2023-05-23T07:18:39;4.03;;;2.15;;
43311;SDS011;30041;48.300;16.352;2023-05-23T07:21:05;3.15;;;1.77;;
43311;SDS011;30041;48.300;16.352;2023-05-23T07:23:33;5.97;;;2.20;;
43311;SDS011;30041;48.300;16.352;2023-05-23T07:25:59;3.65;;;2.08;;
43311;SDS011;30041;48.300;16.352;2023-05-23T07:28:25;3.10;;;1.92;;
43311;SDS011;30041;48.300;16.352;2023-05-23T07:30:51;2.35;;;1.70;;
43311;SDS011;30041;48.300;16.352;2023-05-23T07:33:16;5.47;;;1.90;;
43311;SDS011;30041;48.300;16.352;2023-05-23T07:35:42;4.38;;;1.60;;
43311;SDS011;30041;48.300;16.352;2023-05-23T07:38:08;3.90;;;1.63;;
43311;SDS011;30041;48.300;16.352;2023-05-23T07:40:33;6.95;;;1.73;;
43311;SDS011;30041;48.300;16.352;2023-05-23T07:42:59;3.70;;;1.90;;
43311;SDS011;30041;48.300;16.352;2023-05-23T07:45:24;3.65;;;1.52;;
43311;SDS011;30041;48.300;16.352;2023-05-23T07:47:50;3.42;;;1.48;;
43311;SDS011;30041;48.300;16.352;2023-05-23T07:50:15;3.45;;;1.45;;
43311;SDS011;30041;48.300;16.352;2023-05-23T07:52:41;3.00;;;1.60;;
43311;SDS011;30041;48.300;16.352;2023-05-23T07:55:07;2.55;;;1.30;;
43311;SDS011;30041;48.300;16.352;2023-05-23T07:57:33;3.13;;;1.38;;
43311;SDS011;30041;48.300;16.352;2023-05-23T07:59:58;1.55;;;1.20;;
43311;SDS011;30041;48.300;16.352;2023-05-23T08:02:23;2.13;;;1.23;;
43311;SDS011;30041;48.300;16.352;2023-05-23T08:04:49;4.05;;;1.30;;
43311;SDS011;30041;48.300;16.352;2023-05-23T08:07:14;2.47;;;1.58;;
43311;SDS011;30041;48.300;16.352;2023-05-23T08:09:40;3.03;;;1.42;;
43311;SDS011;30041;48.300;16.352;2023-05-23T08:12:06;4.45;;;1.35;;
43311;SDS011;30041;48.300;16.352;2023-05-23T08:14:33;4.50;;;1.20;;
43311;SDS011;30041;48.300;16.352;2023-05-23T08:16:59;3.47;;;1.30;;
43311;SDS011;30041;48.300;16.352;2023-05-23T08:19:24;1.55;;;1.02;;
43311;SDS011;30041;48.300;16.352;2023-05-23T08:21:50;2.42;;;1.30;;
43311;SDS011;30041;48.300;16.352;2023-05-23T08:24:16;2.53;;;1.08;;
43311;SDS011;30041;48.300;16.352;2023-05-23T08:26:41;3.45;;;1.30;;
43311;SDS011;30041;48.300;16.352;2023-05-23T08:29:07;2.50;;;1.10;;
43311;SDS011;30041;48.300;16.352;2023-05-23T08:31:32;3.03;;;1.00;;
43311;SDS011;30041;48.300;16.352;2023-05-23T08:33:58;1.73;;;1.08;;
43311;SDS011;30041;48.300;16.352;2023-05-23T08:36:24;2.90;;;1.10;;
43311;SDS011;30041;48.300;16.352;2023-05-23T08:38:49;3.50;;;1.17;;
43311;SDS011;30041;48.300;16.352;2023-05-23T08:41:17;2.38;;;0.98;;
43311;SDS011;30041;48.300;16.352;2023-05-23T08:43:44;4.40;;;0.90;;
43311;SDS011;30041;48.300;16.352;2023-05-23T08:46:10;3.33;;;1.20;;
43311;SDS011;30041;48.300;16.352;2023-05-23T08:48:37;1.88;;;0.90;;
43311;SDS011;30041;48.300;16.352;2023-05-23T08:51:03;3.65;;;1.20;;
43311;SDS011;30041;48.300;16.352;2023-05-23T08:53:30;1.95;;;1.00;;
43311;SDS011;30041;48.300;16.352;2023-05-23T08:55:56;1.92;;;0.85;;
43311;SDS011;30041;48.300;16.352;2023-05-23T08:58:22;2.03;;;0.90;;
43311;SDS011;30041;48.300;16.352;2023-05-23T09:00:47;4.97;;;4.47;;
43311;SDS011;30041;48.300;16.352;2023-05-23T09:03:15;8.20;;;6.07;;
43311;SDS011;30041;48.300;16.352;2023-05-23T09:05:41;7.13;;;5.65;;
43311;SDS011;30041;48.300;16.352;2023-05-23T09:08:07;7.82;;;6.28;;
43311;SDS011;30041;48.300;16.352;2023-05-23T09:10:33;7.25;;;6.40;;
43311;SDS011;30041;48.300;16.352;2023-05-23T09:12:58;8.85;;;6.10;;
43311;SDS011;30041;48.300;16.352;2023-05-23T09:15:24;9.25;;;7.13;;
43311;SDS011;30041;48.300;16.352;2023-05-23T09:17:50;9.73;;;6.90;;
43311;SDS011;30041;48.300;16.352;2023-05-23T09:20:16;7.60;;;6.80;;
43311;SDS011;30041;48.300;16.352;2023-05-23T09:22:45;9.35;;;6.85;;
43311;SDS011;30041;48.300;16.352;2023-05-23T09:25:12;7.72;;;6.78;;
43311;SDS011;30041;48.300;16.352;2023-05-23T09:27:38;9.27;;;7.28;;
43311;SDS011;30041;48.300;16.352;2023-05-23T09:30:05;10.30;;;6.47;;
43311;SDS011;30041;48.300;16.352;2023-05-23T09:32:31;7.30;;;6.47;;
43311;SDS011;30041;48.300;16.352;2023-05-23T09:34:57;7.38;;;6.40;;
43311;SDS011;30041;48.300;16.352;2023-05-23T09:37:31;6.43;;;5.78;;
43311;SDS011;30041;48.300;16.352;2023-05-23T09:40:02;10.63;;;7.03;;
43311;SDS011;30041;48.300;16.352;2023-05-23T09:42:33;9.55;;;6.50;;
43311;SDS011;30041;48.300;16.352;2023-05-23T09:44:59;7.68;;;6.82;;
43311;SDS011;30041;48.300;16.352;2023-05-23T09:47:25;10.52;;;7.15;;
43311;SDS011;30041;48.300;16.352;2023-05-23T09:49:50;8.35;;;7.47;;
43311;SDS011;30041;48.300;16.352;2023-05-23T09:52:16;8.95;;;7.18;;
43311;SDS011;30041;48.300;16.352;2023-05-23T09:54:45;8.45;;;7.13;;
43311;SDS011;30041;48.300;16.352;2023-05-23T09:57:12;10.25;;;7.82;;
43311;SDS011;30041;48.300;16.352;2023-05-23T09:59:40;9.00;;;7.20;;
43311;SDS011;30041;48.300;16.352;2023-05-23T10:02:15;9.95;;;7.88;;
43311;SDS011;30041;48.300;16.352;2023-05-23T10:04:42;11.50;;;8.27;;
43311;SDS011;30041;48.300;16.352;2023-05-23T10:07:16;12.35;;;7.95;;
43311;SDS011;30041;48.300;16.352;2023-05-23T10:09:46;10.88;;;8.10;;
43311;SDS011;30041;48.300;16.352;2023-05-23T10:15:06;8.77;;;7.60;;
43311;SDS011;30041;48.300;16.352;2023-05-23T10:17:56;9.35;;;7.75;;
43311;SDS011;30041;48.300;16.352;2023-05-23T10:20:31;8.48;;;7.68;;
43311;SDS011;30041;48.300;16.352;2023-05-23T10:22:59;8.60;;;7.30;;
43311;SDS011;30041;48.300;16.352;2023-05-23T10:25:25;9.38;;;7.35;;
43311;SDS011;30041;48.300;16.352;2023-05-23T10:27:54;8.80;;;7.75;;
43311;SDS011;30041;48.300;16.352;2023-05-23T10:30:20;8.73;;;7.50;;
43311;SDS011;30041;48.300;16.352;2023-05-23T10:32:46;8.57;;;7.78;;
43311;SDS011;30041;48.300;16.352;2023-05-23T10:38:08;9.10;;;8.18;;
43311;SDS011;30041;48.300;16.352;2023-05-23T10:40:41;8.90;;;7.85;;
43311;SDS011;30041;48.300;16.352;2023-05-23T10:46:14;10.70;;;8.27;;
43311;SDS011;30041;48.300;16.352;2023-05-23T10:48:41;9.20;;;8.30;;
43311;SDS011;30041;48.300;16.352;2023-05-23T10:51:08;9.77;;;8.68;;
43311;SDS011;30041;48.300;16.352;2023-05-23T10:53:38;11.00;;;9.50;;
43311;SDS011;30041;48.300;16.352;2023-05-23T10:56:09;9.68;;;8.70;;
43311;SDS011;30041;48.300;16.352;2023-05-23T10:58:42;9.63;;;8.63;;
43311;SDS011;30041;48.300;16.352;2023-05-23T11:01:08;9.35;;;8.45;;
43311;SDS011;30041;48.300;16.352;2023-05-23T11:06:28;9.15;;;8.25;;
43311;SDS011;30041;48.300;16.352;2023-05-23T11:09:02;9.30;;;8.05;;
43311;SDS011;30041;48.300;16.352;2023-05-23T11:14:13;11.32;;;8.55;;
43311;SDS011;30041;48.300;16.352;2023-05-23T11:16:39;9.68;;;8.27;;
43311;SDS011;30041;48.300;16.352;2023-05-23T11:22:02;18.23;;;9.52;;
43311;SDS011;30041;48.300;16.352;2023-05-23T11:24:48;25.45;;;9.65;;
43311;SDS011;30041;48.300;16.352;2023-05-23T11:27:25;12.95;;;8.73;;
43311;SDS011;30041;48.300;16.352;2023-05-23T11:29:59;20.70;;;8.50;;
43311;SDS011;30041;48.300;16.352;2023-05-23T11:32:28;11.38;;;8.90;;
43311;SDS011;30041;48.300;16.352;2023-05-23T11:34:54;14.18;;;9.02;;
43311;SDS011;30041;48.300;16.352;2023-05-23T11:37:20;14.18;;;8.80;;
43311;SDS011;30041;48.300;16.352;2023-05-23T11:39:45;11.25;;;8.40;;
43311;SDS011;30041;48.300;16.352;2023-05-23T11:42:11;20.90;;;8.90;;
43311;SDS011;30041;48.300;16.352;2023-05-23T11:44:36;17.30;;;9.27;;
43311;SDS011;30041;48.300;16.352;2023-05-23T11:47:02;12.10;;;8.13;;
43311;SDS011;30041;48.300;16.352;2023-05-23T11:49:33;13.95;;;8.77;;
43311;SDS011;30041;48.300;16.352;2023-05-23T11:52:00;20.27;;;9.25;;
43311;SDS011;30041;48.300;16.352;2023-05-23T11:54:26;13.88;;;9.38;;
43311;SDS011;30041;48.300;16.352;2023-05-23T11:56:53;15.48;;;8.77;;
43311;SDS011;30041;48.300;16.352;2023-05-23T11:59:20;12.85;;;9.13;;
43311;SDS011;30041;48.300;16.352;2023-05-23T12:01:48;11.50;;;8.52;;
43311;SDS011;30041;48.300;16.352;2023-05-23T12:04:14;20.55;;;8.50;;
43311;SDS011;30041;48.300;16.352;2023-05-23T12:06:39;10.40;;;7.15;;
43311;SDS011;30041;48.300;16.352;2023-05-23T12:09:06;22.27;;;7.43;;
43311;SDS011;30041;48.300;16.352;2023-05-23T12:11:32;13.50;;;7.90;;
43311;SDS011;30041;48.300;16.352;2023-05-23T12:13:59;14.90;;;7.97;;
43311;SDS011;30041;48.300;16.352;2023-05-23T12:16:24;14.32;;;8.05;;
43311;SDS011;30041;48.300;16.352;2023-05-23T12:19:07;14.65;;;7.70;;
43311;SDS011;30041;48.300;16.352;2023-05-23T12:21:43;11.23;;;7.70;;
43311;SDS011;30041;48.300;16.352;2023-05-23T12:24:20;12.70;;;8.40;;
43311;SDS011;30041;48.300;16.352;2023-05-23T12:26:53;11.57;;;7.70;;
43311;SDS011;30041;48.300;16.352;2023-05-23T12:29:27;9.82;;;7.82;;
43311;SDS011;30041;48.300;16.352;2023-05-23T12:31:54;9.27;;;7.50;;
43311;SDS011;30041;48.300;16.352;2023-05-23T12:34:25;10.52;;;7.15;;
43311;SDS011;30041;48.300;16.352;2023-05-23T12:36:54;10.32;;;7.80;;
43311;SDS011;30041;48.300;16.352;2023-05-23T12:39:27;11.95;;;8.63;;
43311;SDS011;30041;48.300;16.352;2023-05-23T12:41:53;12.75;;;7.57;;
43311;SDS011;30041;48.300;16.352;2023-05-23T12:44:19;17.85;;;7.88;;
43311;SDS011;30041;48.300;16.352;2023-05-23T12:46:45;11.98;;;6.95;;
43311;SDS011;30041;48.300;16.352;2023-05-23T12:49:10;10.70;;;7.05;;
43311;SDS011;30041;48.300;16.352;2023-05-23T12:51:36;13.43;;;7.50;;
43311;SDS011;30041;48.300;16.352;2023-05-23T12:54:02;12.60;;;7.30;;
43311;SDS011;30041;48.300;16.352;2023-05-23T12:56:27;10.43;;;7.00;;
43311;SDS011;30041;48.300;16.352;2023-05-23T12:58:53;12.90;;;7.20;;
43311;SDS011;30041;48.300;16.352;2023-05-23T13:01:19;7.65;;;6.32;;
43311;SDS011;30041;48.300;16.352;2023-05-23T13:03:45;11.60;;;7.00;;
43311;SDS011;30041;48.300;16.352;2023-05-23T13:06:10;10.60;;;6.82;;
43311;SDS011;30041;48.300;16.352;2023-05-23T13:08:36;8.75;;;7.10;;
43311;SDS011;30041;48.300;16.352;2023-05-23T13:11:01;8.80;;;7.07;;
43311;SDS011;30041;48.300;16.352;2023-05-23T13:13:27;14.00;;;7.18;;
43311;SDS011;30041;48.300;16.352;2023-05-23T13:15:53;10.80;;;7.57;;
43311;SDS011;30041;48.300;16.352;2023-05-23T13:18:18;8.20;;;6.47;;
43311;SDS011;30041;48.300;16.352;2023-05-23T13:20:44;10.10;;;7.38;;
43311;SDS011;30041;48.300;16.352;2023-05-23T13:23:10;9.15;;;7.10;;
43311;SDS011;30041;48.300;16.352;2023-05-23T13:25:35;9.88;;;7.15;;
43311;SDS011;30041;48.300;16.352;2023-05-23T13:28:01;9.35;;;7.32;;
43311;SDS011;30041;48.300;16.352;2023-05-23T13:30:27;9.38;;;7.28;;
43311;SDS011;30041;48.300;16.352;2023-05-23T13:32:53;12.38;;;7.70;;
43311;SDS011;30041;48.300;16.352;2023-05-23T13:35:18;10.20;;;7.90;;
43311;SDS011;30041;48.300;16.352;2023-05-23T13:37:44;12.32;;;8.18;;
43311;SDS011;30041;48.300;16.352;2023-05-23T13:40:17;9.88;;;7.00;;
43311;SDS011;30041;48.300;16.352;2023-05-23T13:42:45;12.05;;;7.70;;
43311;SDS011;30041;48.300;16.352;2023-05-23T13:45:18;11.52;;;7.47;;
43311;SDS011;30041;48.300;16.352;2023-05-23T13:47:44;11.40;;;7.88;;
43311;SDS011;30041;48.300;16.352;2023-05-23T13:50:10;13.63;;;7.70;;
43311;SDS011;30041;48.300;16.352;2023-05-23T13:52:38;9.90;;;7.55;;
43311;SDS011;30041;48.300;16.352;2023-05-23T13:55:04;10.32;;;8.02;;
43311;SDS011;30041;48.300;16.352;2023-05-23T13:57:30;12.38;;;7.53;;
43311;SDS011;30041;48.300;16.352;2023-05-23T13:59:55;13.93;;;8.63;;
43311;SDS011;30041;48.300;16.352;2023-05-23T14:02:21;16.92;;;7.97;;
43311;SDS011;30041;48.300;16.352;2023-05-23T14:04:47;12.60;;;9.13;;
43311;SDS011;30041;48.300;16.352;2023-05-23T14:07:16;11.18;;;9.65;;
43311;SDS011;30041;48.300;16.352;2023-05-23T14:09:45;13.02;;;8.73;;
43311;SDS011;30041;48.300;16.352;2023-05-23T14:12:12;10.68;;;9.52;;
43311;SDS011;30041;48.300;16.352;2023-05-23T14:14:38;12.02;;;9.85;;
43311;SDS011;30041;48.300;16.352;2023-05-23T14:17:04;12.35;;;9.93;;
43311;SDS011;30041;48.300;16.352;2023-05-23T14:19:29;13.20;;;10.15;;
43311;SDS011;30041;48.300;16.352;2023-05-23T14:21:55;15.88;;;9.70;;
43311;SDS011;30041;48.300;16.352;2023-05-23T14:24:20;12.05;;;10.13;;
43311;SDS011;30041;48.300;16.352;2023-05-23T14:26:46;11.80;;;10.02;;
43311;SDS011;30041;48.300;16.352;2023-05-23T14:29:12;11.95;;;10.13;;
43311;SDS011;30041;48.300;16.352;2023-05-23T14:31:37;11.10;;;10.00;;
43311;SDS011;30041;48.300;16.352;2023-05-23T14:34:03;13.95;;;10.50;;
43311;SDS011;30041;48.300;16.352;2023-05-23T14:36:28;12.02;;;10.23;;
43311;SDS011;30041;48.300;16.352;2023-05-23T14:38:54;11.02;;;9.90;;
43311;SDS011;30041;48.300;16.352;2023-05-23T14:41:19;13.40;;;10.65;;
43311;SDS011;30041;48.300;16.352;2023-05-23T14:43:45;12.07;;;10.10;;